Endurance — WDE9586 — position and weather

sailwx.info

Track history (hours):
 
Tides and Currents Weather Stations Pressure Air Temp Water Temp Dewpoint Dewpoint Depression Visibility Wind Speed Wind Dir Waves Ship Positions

Endurance

Owner: TOTE Services, Inc., Jacksonville, FL. More information available from US FCC via Universal Licensing System and Coast Guard Vessel Documentation Center.

Last reported at 2017-Nov-20 18:00 UTC. Time now 2017-Nov-21 02:43 UTC.
Position N 38°24' W 031°30'.

Length 264 m; draft 7.9 m.

Type: Cargo ship. MMSI: 366479000.

Wind from 290 at 22 knots

Barometer 1008.2 mb
Air temperature 19.0 ° C
Visibility: greater than 10.8 NM
Dewpoint 13.8 ° C
Water temperature 20.0 ° C

Date/timePositionNaut miles runAvg speedWind from/ knotsBaromVisibWave heightAir tempDewpointWater temp
2017-Nov-20 18:00N 38°24' W 031°30'20517.1 290 / 221008.210.8 19.013.820.0
2017-Nov-20 06:00N 40°00' W 027°36'10217.0 170 / 251005.9 5.4 18.016.319.0
2017-Nov-20 00:00N 40°54' W 025°42'20617.2 170 / 251007.910.8 19.015.720.0
2017-Nov-19 12:00N 42°36' W 021°42'20216.8 180 / 171017.110.8 21.017.820.0
2017-Nov-19 00:00N 44°18' W 017°42'41517.3 130 / 151020.210.8 18.012.717.0
2017-Nov-18 00:00N 47°48' W 009°06'6218.7 140 / 141027.110.8 14.0 8.015.0
2017-Nov-17 20:40N 48°19' W 007°45'2118.4
2017-Nov-17 19:32N 48°30' W 007°19'117.5
2017-Nov-17 19:30N 48°30' W 007°18'2118.0
2017-Nov-17 18:20N 48°41' W 006°50'917.6
2017-Nov-17 17:51N 48°45' W 006°39'717.3
2017-Nov-17 17:26N 48°49' W 006°30'817.1
2017-Nov-17 16:57N 48°54' W 006°20'3513.2
2017-Nov-17 14:19N 49°10' W 005°33'4514.9
2017-Nov-17 11:18N 49°30' W 004°31'918.2
2017-Nov-17 10:47N 49°34' W 004°19'2018.4
2017-Nov-17 09:42N 49°43' W 003°51'918.1
2017-Nov-17 09:13N 49°47' W 003°39'417.7
2017-Nov-17 09:00N 49°48' W 003°33'917.4
2017-Nov-17 08:30N 49°51' W 003°21'816.6
2017-Nov-17 08:00N 49°54' W 003°09'816.1
2017-Nov-17 07:30N 49°57' W 002°57'915.5
2017-Nov-17 06:54N 50°00' W 002°43'1914.9
2017-Nov-17 05:36N 50°05' W 002°14'415.1
2017-Nov-17 05:19N 50°06' W 002°08'515.2
2017-Nov-17 05:00N 50°07' W 002°00'816.0
2017-Nov-17 04:31N 50°10' W 001°48'816.9
2017-Nov-17 04:00N 50°13' W 001°36'917.9
2017-Nov-17 03:30N 50°15' W 001°23'1118.9
2017-Nov-17 02:55N 50°19' W 001°06'819.7
2017-Nov-17 02:30N 50°21' W 000°54'1019.7
2017-Nov-17 02:00N 50°24' W 000°39'1019.4
2017-Nov-17 01:30N 50°25' W 000°24'918.9
2017-Nov-17 01:01N 50°28' W 000°10'918.7
2017-Nov-17 00:30N 50°30' E 000°04'918.4
2017-Nov-17 00:00N 50°32' E 000°18'2156.3
2017-Nov-17 00:00N 50°30' E 000°18'1020.7 050 / 151026.410.8 13.0 9.115.0
2017-Nov-16 23:30N 50°35' E 000°32'817.2
2017-Nov-16 23:00N 50°40' E 000°43'816.8
2017-Nov-16 22:30N 50°45' E 000°54'816.4
2017-Nov-16 22:00N 50°50' E 001°04'816.1
2017-Nov-16 21:30N 50°55' E 001°13'816.0
2017-Nov-16 21:00N 51°01' E 001°22'917.5
2017-Nov-16 20:30N 51°07' E 001°32'918.4
2017-Nov-16 20:00N 51°13' E 001°44'918.9
2017-Nov-16 19:30N 51°22' E 001°49'918.9
2017-Nov-16 19:00N 51°29' E 001°58'918.7
2017-Nov-16 18:31N 51°35' E 002°10'918.4
2017-Nov-16 18:00N 51°41' E 002°21'4013.7
2017-Nov-16 15:06N 52°03' E 003°15'212.5
2017-Nov-16 14:56N 52°03' E 003°18'612.2
2017-Nov-16 14:26N 52°03' E 003°28'512.0
2017-Nov-16 14:00N 52°04' E 003°37'612.0
2017-Nov-16 13:30N 52°03' E 003°46'511.0
2017-Nov-16 13:00N 52°03' E 003°55'4 7.9
2017-Nov-16 12:30N 52°01' E 003°60'510.9
2017-Nov-16 12:00N 51°58' E 004°08'4 8.3
2017-Nov-16 11:30N 51°56' E 004°13'3 6.6
2017-Nov-16 11:00N 51°54' E 004°17'0 0.0
2017-Nov-16 10:31N 51°54' E 004°17'0 0.0
2017-Nov-16 10:00N 51°54' E 004°17'0 0.0
2017-Nov-16 09:28N 51°54' E 004°17'0 0.0
2017-Nov-16 08:58N 51°54' E 004°17'0 0.0
2017-Nov-16 08:28N 51°54' E 004°17'0 0.0
2017-Nov-16 07:58N 51°54' E 004°17'0 0.0
2017-Nov-16 07:28N 51°54' E 004°17'0 0.0
2017-Nov-16 06:58N 51°54' E 004°17'0 0.0
2017-Nov-16 06:28N 51°54' E 004°17'0 0.0
2017-Nov-16 05:58N 51°54' E 004°17'0 0.0
2017-Nov-16 05:28N 51°54' E 004°17'0 0.0
2017-Nov-16 04:58N 51°54' E 004°17'0 0.0
2017-Nov-16 04:28N 51°54' E 004°17'0 0.0
2017-Nov-16 03:58N 51°54' E 004°17'0 0.0
2017-Nov-16 03:28N 51°54' E 004°17'0 0.0
2017-Nov-16 02:58N 51°54' E 004°17'0 0.0
2017-Nov-16 02:28N 51°54' E 004°17'0 0.0
2017-Nov-16 01:58N 51°54' E 004°17'0 0.0
2017-Nov-16 01:28N 51°54' E 004°17'0 0.0
2017-Nov-16 00:58N 51°54' E 004°17'0 0.0
2017-Nov-16 00:28N 51°54' E 004°17'0 0.0
2017-Nov-15 23:58N 51°54' E 004°17'0 0.0
2017-Nov-15 23:30N 51°54' E 004°17'0 0.0
2017-Nov-15 23:00N 51°54' E 004°17'0 0.2
2017-Nov-15 22:30N 51°54' E 004°18'0 0.2
2017-Nov-15 22:00N 51°54' E 004°17'0 0.0
2017-Nov-15 21:30N 51°54' E 004°17'0 0.0
2017-Nov-15 21:00N 51°54' E 004°17'0 0.0
2017-Nov-15 20:30N 51°54' E 004°17'0 0.0
2017-Nov-15 19:58N 51°54' E 004°17'0 0.0
2017-Nov-15 19:28N 51°54' E 004°17'0 0.0
2017-Nov-15 18:58N 51°54' E 004°17'0 0.0
2017-Nov-15 18:28N 51°54' E 004°17'0 0.0
2017-Nov-15 17:58N 51°54' E 004°17'0 0.0
2017-Nov-15 17:28N 51°54' E 004°17'0 0.0
2017-Nov-15 16:58N 51°54' E 004°17'0 0.0
2017-Nov-15 16:28N 51°54' E 004°17'0 0.0
2017-Nov-15 15:58N 51°54' E 004°17'0 0.0
2017-Nov-15 15:28N 51°54' E 004°17'0 0.0
2017-Nov-15 14:58N 51°54' E 004°17'0 0.0
2017-Nov-15 14:28N 51°54' E 004°17'0 0.0
2017-Nov-15 13:58N 51°54' E 004°17'0 0.0
2017-Nov-15 13:28N 51°54' E 004°17'0 0.0
2017-Nov-15 12:58N 51°54' E 004°17'0 0.0
2017-Nov-15 12:28N 51°54' E 004°17'0 0.0
2017-Nov-15 11:58N 51°54' E 004°17'0 0.0
2017-Nov-15 11:28N 51°54' E 004°17'0 0.0
2017-Nov-15 10:58N 51°54' E 004°17'0 0.0
2017-Nov-15 10:28N 51°54' E 004°17'0 0.0
2017-Nov-15 09:58N 51°54' E 004°17'0 0.0
2017-Nov-15 09:28N 51°54' E 004°17'0 0.0
2017-Nov-15 08:58N 51°54' E 004°17'0 0.0
2017-Nov-15 08:28N 51°54' E 004°17'0 0.0
2017-Nov-15 07:58N 51°54' E 004°17'0 0.0
2017-Nov-15 07:28N 51°54' E 004°17'0 0.0
2017-Nov-15 06:58N 51°54' E 004°17'0 0.0
2017-Nov-15 06:28N 51°54' E 004°17'0 0.0
2017-Nov-15 05:58N 51°54' E 004°17'0 0.0
2017-Nov-15 05:28N 51°54' E 004°17'0 0.0
2017-Nov-15 04:58N 51°54' E 004°17'0 0.0
2017-Nov-15 04:28N 51°54' E 004°17'0 0.0
2017-Nov-15 03:58N 51°54' E 004°17'0 0.0
2017-Nov-15 03:28N 51°54' E 004°17'0 0.0
2017-Nov-15 02:58N 51°54' E 004°17'0 0.0
2017-Nov-15 02:28N 51°54' E 004°17'0 0.0
2017-Nov-15 01:58N 51°54' E 004°17'0 0.0
2017-Nov-15 01:28N 51°54' E 004°17'0 0.0
2017-Nov-15 00:58N 51°54' E 004°17'0 0.0
2017-Nov-15 00:28N 51°54' E 004°17'0 0.0
2017-Nov-14 23:58N 51°54' E 004°17'0 0.0
2017-Nov-14 23:28N 51°54' E 004°17'0 0.0
2017-Nov-14 22:58N 51°54' E 004°17'0 0.0
2017-Nov-14 22:28N 51°54' E 004°17'0 0.0
2017-Nov-14 21:58N 51°54' E 004°17'0 0.0
2017-Nov-14 21:28N 51°54' E 004°17'0 0.0
2017-Nov-14 20:58N 51°54' E 004°17'0 0.0
2017-Nov-14 20:28N 51°54' E 004°17'0 0.0
2017-Nov-14 19:58N 51°54' E 004°17'0 0.0
2017-Nov-14 19:28N 51°54' E 004°17'0 0.0
2017-Nov-14 18:58N 51°54' E 004°17'0 0.0
2017-Nov-14 18:28N 51°54' E 004°17'0 0.0
2017-Nov-14 17:58N 51°54' E 004°17'0 0.0
2017-Nov-14 17:28N 51°54' E 004°17'0 0.0
2017-Nov-14 16:58N 51°54' E 004°17'0 0.0
2017-Nov-14 16:28N 51°54' E 004°17'0 0.0
2017-Nov-14 15:58N 51°54' E 004°17'0 0.0
2017-Nov-14 15:28N 51°54' E 004°17'0 0.0
2017-Nov-14 14:58N 51°54' E 004°17'0 0.0
2017-Nov-14 14:28N 51°54' E 004°17'0 0.0
2017-Nov-14 13:58N 51°54' E 004°17'0 0.0
2017-Nov-14 13:28N 51°54' E 004°17'0 0.0
2017-Nov-14 12:58N 51°54' E 004°17'0 0.0
2017-Nov-14 12:28N 51°54' E 004°17'0 0.0
2017-Nov-14 11:58N 51°54' E 004°17'0 0.0
2017-Nov-14 11:28N 51°54' E 004°17'0 0.0
2017-Nov-14 10:58N 51°54' E 004°17'0 0.0
2017-Nov-14 10:28N 51°54' E 004°17'0 0.0
2017-Nov-14 09:58N 51°54' E 004°17'0 0.0
2017-Nov-14 09:28N 51°54' E 004°17'0 0.0
2017-Nov-14 08:58N 51°54' E 004°17'0 0.0
2017-Nov-14 08:28N 51°54' E 004°17'0 0.0
2017-Nov-14 07:58N 51°54' E 004°17'0 0.0
2017-Nov-14 07:28N 51°54' E 004°17'0 0.0
2017-Nov-14 06:58N 51°54' E 004°17'0 0.0
2017-Nov-14 06:28N 51°54' E 004°17'0 0.0
2017-Nov-14 05:58N 51°54' E 004°17'0 0.0
2017-Nov-14 05:28N 51°54' E 004°17'0 0.0
2017-Nov-14 04:58N 51°54' E 004°17'0 0.0
2017-Nov-14 04:28N 51°54' E 004°17'0 0.0
2017-Nov-14 03:58N 51°54' E 004°17'0 0.0
2017-Nov-14 03:28N 51°54' E 004°17'0 0.0
2017-Nov-14 02:58N 51°54' E 004°17'0 0.0
2017-Nov-14 02:28N 51°54' E 004°17'0 0.0
2017-Nov-14 01:58N 51°54' E 004°17'0 0.0
2017-Nov-14 01:28N 51°54' E 004°17'0 0.0
2017-Nov-14 00:58N 51°54' E 004°17'0 0.0
2017-Nov-14 00:28N 51°54' E 004°17'0 0.0
2017-Nov-13 23:58N 51°54' E 004°17'0 0.0
2017-Nov-13 23:28N 51°54' E 004°17'0 0.0
2017-Nov-13 22:58N 51°54' E 004°17'0 0.0
2017-Nov-13 22:28N 51°54' E 004°17'0 0.0
2017-Nov-13 21:58N 51°54' E 004°17'0 0.0
2017-Nov-13 01:58N 51°54' E 004°17'0 0.0
2017-Nov-13 01:28N 51°54' E 004°17'0 0.2
2017-Nov-13 01:01N 51°54' E 004°17'2 4.6
2017-Nov-13 00:31N 51°55' E 004°14'4 8.1
2017-Nov-13 00:01N 51°58' E 004°09'5 9.6
2017-Nov-12 23:31N 51°59' E 004°02'4 8.2
2017-Nov-12 23:00N 52°01' E 003°56'4 8.7
2017-Nov-12 22:30N 52°02' E 003°49'3 6.2
2017-Nov-12 22:00N 52°04' E 003°45'5 9.5
2017-Nov-12 21:31N 52°09' E 003°45'917.6
2017-Nov-12 21:01N 52°17' E 003°46'917.6
2017-Nov-12 20:30N 52°26' E 003°50'816.6
2017-Nov-12 20:00N 52°34' E 003°53'4 8.5
2017-Nov-12 19:30N 52°30' E 003°55'713.5
2017-Nov-12 19:01N 52°24' E 003°53'713.2
2017-Nov-12 18:30N 52°17' E 003°52'713.7
2017-Nov-12 18:00N 52°10' E 003°54'713.1
2017-Nov-12 17:30N 52°04' E 003°52'611.8
2017-Nov-12 17:00N 51°59' E 003°45'2 4.8
2017-Nov-12 16:30N 51°59' E 003°49'3 5.1
2017-Nov-12 16:00N 52°00' E 003°45'4 8.7
2017-Nov-12 15:30N 52°04' E 003°47'4 9.0
2017-Nov-12 15:00N 52°09' E 003°46'4 8.1
2017-Nov-12 14:30N 52°13' E 003°46'4 8.7
2017-Nov-12 14:00N 52°17' E 003°47'5 9.5
2017-Nov-12 13:30N 52°22' E 003°48'3 6.8
2017-Nov-12 13:00N 52°19' E 003°45'2 3.7
2017-Nov-12 12:30N 52°20' E 003°48'611.1
2017-Nov-12 12:00N 52°25' E 003°50'917.9
2017-Nov-12 11:30N 52°34' E 003°53'917.6
2017-Nov-12 11:00N 52°43' E 003°56'2116.1
2017-Nov-12 09:43N 53°02' E 004°10'417.2
2017-Nov-12 09:30N 53°04' E 004°15'917.3
2017-Nov-12 09:00N 53°10' E 004°25'11616.7
2017-Nov-12 02:03N 53°59' E 007°23'115.9
2017-Nov-12 01:58N 53°59' E 007°25'715.8
2017-Nov-12 01:30N 54°00' E 007°37'815.7
2017-Nov-12 01:00N 53°54' E 007°45'510.7
2017-Nov-12 00:30N 53°52' E 007°54'815.2
2017-Nov-12 00:00N 53°50' E 008°06'917.5
2017-Nov-11 23:30N 53°43' E 008°16'918.0
2017-Nov-11 23:01N 53°38' E 008°28'611.0
2017-Nov-11 22:30N 53°33' E 008°33'0 0.7
2017-Nov-11 22:00N 53°33' E 008°34'0 0.2
2017-Nov-11 21:30N 53°34' E 008°34'0 0.7
2017-Nov-11 21:00N 53°34' E 008°34'0 0.0
2017-Nov-11 20:30N 53°34' E 008°34'0 0.0
2017-Nov-11 19:59N 53°34' E 008°34'0 0.0
2017-Nov-11 19:29N 53°34' E 008°34'0 0.0
2017-Nov-11 18:59N 53°34' E 008°34'0 0.0
2017-Nov-11 18:29N 53°34' E 008°34'0 0.0
2017-Nov-11 17:59N 53°34' E 008°34'0 0.0
2017-Nov-11 17:29N 53°34' E 008°34'0 0.0
2017-Nov-11 16:59N 53°34' E 008°34'0 0.0
2017-Nov-11 16:29N 53°34' E 008°34'0 0.0
2017-Nov-11 15:59N 53°34' E 008°34'0 0.0
2017-Nov-11 15:29N 53°34' E 008°34'0 0.0
2017-Nov-11 14:59N 53°34' E 008°34'0 0.0
2017-Nov-11 14:29N 53°34' E 008°34'0 0.0
2017-Nov-11 13:59N 53°34' E 008°34'0 0.0
2017-Nov-11 13:29N 53°34' E 008°34'0 0.0
2017-Nov-11 12:59N 53°34' E 008°34'0 0.0
2017-Nov-11 12:29N 53°34' E 008°34'0 0.0
2017-Nov-11 11:59N 53°34' E 008°34'0 0.0
2017-Nov-11 11:29N 53°34' E 008°34'0 0.0
2017-Nov-11 10:59N 53°34' E 008°34'0 0.0
2017-Nov-11 10:29N 53°34' E 008°34'0 0.0
2017-Nov-11 09:59N 53°34' E 008°34'0 0.0
2017-Nov-11 09:29N 53°34' E 008°34'0 0.0
2017-Nov-11 08:59N 53°34' E 008°34'0 0.5
2017-Nov-11 08:29N 53°34' E 008°33'1 1.7
2017-Nov-11 08:00N 53°34' E 008°33'0 0.4
2017-Nov-11 07:30N 53°34' E 008°33'0 0.7
2017-Nov-11 07:00N 53°34' E 008°32'510.0
2017-Nov-11 06:30N 53°38' E 008°27'816.0
2017-Nov-11 06:00N 53°43' E 008°17'816.1
2017-Nov-11 05:30N 53°49' E 008°07'816.4
2017-Nov-11 05:00N 53°52' E 007°54'713.9
2017-Nov-11 04:30N 53°52' E 007°42'4316.0
2017-Nov-11 01:47N 54°33' E 007°16'619.5
2017-Nov-11 01:28N 54°38' E 007°11'918.9
2017-Nov-11 01:00N 54°47' E 007°09'1019.1
2017-Nov-11 00:30N 54°56' E 007°06'1019.2
2017-Nov-11 00:00N 55°06' E 007°03'6400.5
2017-Nov-11 00:00N 55°00' E 007°00'1531.8 300 / 301003.210.8 10.0 5.713.0
2017-Nov-10 23:30N 55°15' E 007°01'918.5
2017-Nov-10 23:00N 55°25' E 007°02'  
Track history (hours):
 
Tides and Currents Weather Stations Pressure Air Temp Water Temp Dewpoint Dewpoint Depression Visibility Wind Speed Wind Dir Waves Ship Positions

Endurance

Owner: TOTE Services, Inc., Jacksonville, FL. More information available from US FCC via Universal Licensing System and Coast Guard Vessel Documentation Center.

Last reported at 2017-Nov-20 18:00 UTC. Time now 2017-Nov-21 02:43 UTC.
Position N 38°24' W 031°30'.

Length 264 m; draft 7.9 m.

Type: Cargo ship. MMSI: 366479000.

Wind from 290 at 22 knots

Barometer 1008.2 mb
Air temperature 19.0 ° C
Visibility: greater than 10.8 NM
Dewpoint 13.8 ° C
Water temperature 20.0 ° C

Date/timePositionNaut miles runAvg speedWind from/ knotsBaromVisibWave heightAir tempDewpointWater temp
2017-Nov-20 18:00N 38°24' W 031°30'20517.1 290 / 221008.210.8 19.013.820.0
2017-Nov-20 06:00N 40°00' W 027°36'10217.0 170 / 251005.9 5.4 18.016.319.0
2017-Nov-20 00:00N 40°54' W 025°42'20617.2 170 / 251007.910.8 19.015.720.0
2017-Nov-19 12:00N 42°36' W 021°42'20216.8 180 / 171017.110.8 21.017.820.0
2017-Nov-19 00:00N 44°18' W 017°42'41517.3 130 / 151020.210.8 18.012.717.0
2017-Nov-18 00:00N 47°48' W 009°06'6218.7 140 / 141027.110.8 14.0 8.015.0
2017-Nov-17 20:40N 48°19' W 007°45'2118.4
2017-Nov-17 19:32N 48°30' W 007°19'117.5
2017-Nov-17 19:30N 48°30' W 007°18'2118.0
2017-Nov-17 18:20N 48°41' W 006°50'917.6
2017-Nov-17 17:51N 48°45' W 006°39'717.3
2017-Nov-17 17:26N 48°49' W 006°30'817.1
2017-Nov-17 16:57N 48°54' W 006°20'3513.2
2017-Nov-17 14:19N 49°10' W 005°33'4514.9
2017-Nov-17 11:18N 49°30' W 004°31'918.2
2017-Nov-17 10:47N 49°34' W 004°19'2018.4
2017-Nov-17 09:42N 49°43' W 003°51'918.1
2017-Nov-17 09:13N 49°47' W 003°39'417.7
2017-Nov-17 09:00N 49°48' W 003°33'917.4
2017-Nov-17 08:30N 49°51' W 003°21'816.6
2017-Nov-17 08:00N 49°54' W 003°09'816.1
2017-Nov-17 07:30N 49°57' W 002°57'915.5
2017-Nov-17 06:54N 50°00' W 002°43'1914.9
2017-Nov-17 05:36N 50°05' W 002°14'415.1
2017-Nov-17 05:19N 50°06' W 002°08'515.2
2017-Nov-17 05:00N 50°07' W 002°00'816.0
2017-Nov-17 04:31N 50°10' W 001°48'816.9
2017-Nov-17 04:00N 50°13' W 001°36'917.9
2017-Nov-17 03:30N 50°15' W 001°23'1118.9
2017-Nov-17 02:55N 50°19' W 001°06'819.7
2017-Nov-17 02:30N 50°21' W 000°54'1019.7
2017-Nov-17 02:00N 50°24' W 000°39'1019.4
2017-Nov-17 01:30N 50°25' W 000°24'918.9
2017-Nov-17 01:01N 50°28' W 000°10'918.7
2017-Nov-17 00:30N 50°30' E 000°04'918.4
2017-Nov-17 00:00N 50°32' E 000°18'2156.3
2017-Nov-17 00:00N 50°30' E 000°18'1020.7 050 / 151026.410.8 13.0 9.115.0
2017-Nov-16 23:30N 50°35' E 000°32'817.2
2017-Nov-16 23:00N 50°40' E 000°43'816.8
2017-Nov-16 22:30N 50°45' E 000°54'816.4
2017-Nov-16 22:00N 50°50' E 001°04'816.1
2017-Nov-16 21:30N 50°55' E 001°13'816.0
2017-Nov-16 21:00N 51°01' E 001°22'917.5
2017-Nov-16 20:30N 51°07' E 001°32'918.4
2017-Nov-16 20:00N 51°13' E 001°44'918.9
2017-Nov-16 19:30N 51°22' E 001°49'918.9
2017-Nov-16 19:00N 51°29' E 001°58'918.7
2017-Nov-16 18:31N 51°35' E 002°10'918.4
2017-Nov-16 18:00N 51°41' E 002°21'4013.7
2017-Nov-16 15:06N 52°03' E 003°15'212.5
2017-Nov-16 14:56N 52°03' E 003°18'612.2
2017-Nov-16 14:26N 52°03' E 003°28'512.0
2017-Nov-16 14:00N 52°04' E 003°37'612.0
2017-Nov-16 13:30N 52°03' E 003°46'511.0
2017-Nov-16 13:00N 52°03' E 003°55'4 7.9
2017-Nov-16 12:30N 52°01' E 003°60'510.9
2017-Nov-16 12:00N 51°58' E 004°08'4 8.3
2017-Nov-16 11:30N 51°56' E 004°13'3 6.6
2017-Nov-16 11:00N 51°54' E 004°17'0 0.0
2017-Nov-16 10:31N 51°54' E 004°17'0 0.0
2017-Nov-16 10:00N 51°54' E 004°17'0 0.0
2017-Nov-16 09:28N 51°54' E 004°17'0 0.0
2017-Nov-16 08:58N 51°54' E 004°17'0 0.0
2017-Nov-16 08:28N 51°54' E 004°17'0 0.0
2017-Nov-16 07:58N 51°54' E 004°17'0 0.0
2017-Nov-16 07:28N 51°54' E 004°17'0 0.0
2017-Nov-16 06:58N 51°54' E 004°17'0 0.0
2017-Nov-16 06:28N 51°54' E 004°17'0 0.0
2017-Nov-16 05:58N 51°54' E 004°17'0 0.0
2017-Nov-16 05:28N 51°54' E 004°17'0 0.0
2017-Nov-16 04:58N 51°54' E 004°17'0 0.0
2017-Nov-16 04:28N 51°54' E 004°17'0 0.0
2017-Nov-16 03:58N 51°54' E 004°17'0 0.0
2017-Nov-16 03:28N 51°54' E 004°17'0 0.0
2017-Nov-16 02:58N 51°54' E 004°17'0 0.0
2017-Nov-16 02:28N 51°54' E 004°17'0 0.0
2017-Nov-16 01:58N 51°54' E 004°17'0 0.0
2017-Nov-16 01:28N 51°54' E 004°17'0 0.0
2017-Nov-16 00:58N 51°54' E 004°17'0 0.0
2017-Nov-16 00:28N 51°54' E 004°17'0 0.0
2017-Nov-15 23:58N 51°54' E 004°17'0 0.0
2017-Nov-15 23:30N 51°54' E 004°17'0 0.0
2017-Nov-15 23:00N 51°54' E 004°17'0 0.2
2017-Nov-15 22:30N 51°54' E 004°18'0 0.2
2017-Nov-15 22:00N 51°54' E 004°17'0 0.0
2017-Nov-15 21:30N 51°54' E 004°17'0 0.0
2017-Nov-15 21:00N 51°54' E 004°17'0 0.0
2017-Nov-15 20:30N 51°54' E 004°17'0 0.0
2017-Nov-15 19:58N 51°54' E 004°17'0 0.0
2017-Nov-15 19:28N 51°54' E 004°17'0 0.0
2017-Nov-15 18:58N 51°54' E 004°17'0 0.0
2017-Nov-15 18:28N 51°54' E 004°17'0 0.0
2017-Nov-15 17:58N 51°54' E 004°17'0 0.0
2017-Nov-15 17:28N 51°54' E 004°17'0 0.0
2017-Nov-15 16:58N 51°54' E 004°17'0 0.0
2017-Nov-15 16:28N 51°54' E 004°17'0 0.0
2017-Nov-15 15:58N 51°54' E 004°17'0 0.0
2017-Nov-15 15:28N 51°54' E 004°17'0 0.0
2017-Nov-15 14:58N 51°54' E 004°17'0 0.0
2017-Nov-15 14:28N 51°54' E 004°17'0 0.0
2017-Nov-15 13:58N 51°54' E 004°17'0 0.0
2017-Nov-15 13:28N 51°54' E 004°17'0 0.0
2017-Nov-15 12:58N 51°54' E 004°17'0 0.0
2017-Nov-15 12:28N 51°54' E 004°17'0 0.0
2017-Nov-15 11:58N 51°54' E 004°17'0 0.0
2017-Nov-15 11:28N 51°54' E 004°17'0 0.0
2017-Nov-15 10:58N 51°54' E 004°17'0 0.0
2017-Nov-15 10:28N 51°54' E 004°17'0 0.0
2017-Nov-15 09:58N 51°54' E 004°17'0 0.0
2017-Nov-15 09:28N 51°54' E 004°17'0 0.0
2017-Nov-15 08:58N 51°54' E 004°17'0 0.0
2017-Nov-15 08:28N 51°54' E 004°17'0 0.0
2017-Nov-15 07:58N 51°54' E 004°17'0 0.0
2017-Nov-15 07:28N 51°54' E 004°17'0 0.0
2017-Nov-15 06:58N 51°54' E 004°17'0 0.0
2017-Nov-15 06:28N 51°54' E 004°17'0 0.0
2017-Nov-15 05:58N 51°54' E 004°17'0 0.0
2017-Nov-15 05:28N 51°54' E 004°17'0 0.0
2017-Nov-15 04:58N 51°54' E 004°17'0 0.0
2017-Nov-15 04:28N 51°54' E 004°17'0 0.0
2017-Nov-15 03:58N 51°54' E 004°17'0 0.0
2017-Nov-15 03:28N 51°54' E 004°17'0 0.0
2017-Nov-15 02:58N 51°54' E 004°17'0 0.0
2017-Nov-15 02:28N 51°54' E 004°17'0 0.0
2017-Nov-15 01:58N 51°54' E 004°17'0 0.0
2017-Nov-15 01:28N 51°54' E 004°17'0 0.0
2017-Nov-15 00:58N 51°54' E 004°17'0 0.0
2017-Nov-15 00:28N 51°54' E 004°17'0 0.0
2017-Nov-14 23:58N 51°54' E 004°17'0 0.0
2017-Nov-14 23:28N 51°54' E 004°17'0 0.0
2017-Nov-14 22:58N 51°54' E 004°17'0 0.0
2017-Nov-14 22:28N 51°54' E 004°17'0 0.0
2017-Nov-14 21:58N 51°54' E 004°17'0 0.0
2017-Nov-14 21:28N 51°54' E 004°17'0 0.0
2017-Nov-14 20:58N 51°54' E 004°17'0 0.0
2017-Nov-14 20:28N 51°54' E 004°17'0 0.0
2017-Nov-14 19:58N 51°54' E 004°17'0 0.0
2017-Nov-14 19:28N 51°54' E 004°17'0 0.0
2017-Nov-14 18:58N 51°54' E 004°17'0 0.0
2017-Nov-14 18:28N 51°54' E 004°17'0 0.0
2017-Nov-14 17:58N 51°54' E 004°17'0 0.0
2017-Nov-14 17:28N 51°54' E 004°17'0 0.0
2017-Nov-14 16:58N 51°54' E 004°17'0 0.0
2017-Nov-14 16:28N 51°54' E 004°17'0 0.0
2017-Nov-14 15:58N 51°54' E 004°17'0 0.0
2017-Nov-14 15:28N 51°54' E 004°17'0 0.0
2017-Nov-14 14:58N 51°54' E 004°17'0 0.0
2017-Nov-14 14:28N 51°54' E 004°17'0 0.0
2017-Nov-14 13:58N 51°54' E 004°17'0 0.0
2017-Nov-14 13:28N 51°54' E 004°17'0 0.0
2017-Nov-14 12:58N 51°54' E 004°17'0 0.0
2017-Nov-14 12:28N 51°54' E 004°17'0 0.0
2017-Nov-14 11:58N 51°54' E 004°17'0 0.0
2017-Nov-14 11:28N 51°54' E 004°17'0 0.0
2017-Nov-14 10:58N 51°54' E 004°17'0 0.0
2017-Nov-14 10:28N 51°54' E 004°17'0 0.0
2017-Nov-14 09:58N 51°54' E 004°17'0 0.0
2017-Nov-14 09:28N 51°54' E 004°17'0 0.0
2017-Nov-14 08:58N 51°54' E 004°17'0 0.0
2017-Nov-14 08:28N 51°54' E 004°17'0 0.0
2017-Nov-14 07:58N 51°54' E 004°17'0 0.0
2017-Nov-14 07:28N 51°54' E 004°17'0 0.0
2017-Nov-14 06:58N 51°54' E 004°17'0 0.0
2017-Nov-14 06:28N 51°54' E 004°17'0 0.0
2017-Nov-14 05:58N 51°54' E 004°17'0 0.0
2017-Nov-14 05:28N 51°54' E 004°17'0 0.0
2017-Nov-14 04:58N 51°54' E 004°17'0 0.0
2017-Nov-14 04:28N 51°54' E 004°17'0 0.0
2017-Nov-14 03:58N 51°54' E 004°17'0 0.0
2017-Nov-14 03:28N 51°54' E 004°17'0 0.0
2017-Nov-14 02:58N 51°54' E 004°17'0 0.0
2017-Nov-14 02:28N 51°54' E 004°17'0 0.0
2017-Nov-14 01:58N 51°54' E 004°17'0 0.0
2017-Nov-14 01:28N 51°54' E 004°17'0 0.0
2017-Nov-14 00:58N 51°54' E 004°17'0 0.0
2017-Nov-14 00:28N 51°54' E 004°17'0 0.0
2017-Nov-13 23:58N 51°54' E 004°17'0 0.0
2017-Nov-13 23:28N 51°54' E 004°17'0 0.0
2017-Nov-13 22:58N 51°54' E 004°17'0 0.0
2017-Nov-13 22:28N 51°54' E 004°17'0 0.0
2017-Nov-13 21:58N 51°54' E 004°17'0 0.0
2017-Nov-13 01:58N 51°54' E 004°17'0 0.0
2017-Nov-13 01:28N 51°54' E 004°17'0 0.2
2017-Nov-13 01:01N 51°54' E 004°17'2 4.6
2017-Nov-13 00:31N 51°55' E 004°14'4 8.1
2017-Nov-13 00:01N 51°58' E 004°09'5 9.6
2017-Nov-12 23:31N 51°59' E 004°02'4 8.2
2017-Nov-12 23:00N 52°01' E 003°56'4 8.7
2017-Nov-12 22:30N 52°02' E 003°49'3 6.2
2017-Nov-12 22:00N 52°04' E 003°45'5 9.5
2017-Nov-12 21:31N 52°09' E 003°45'917.6
2017-Nov-12 21:01N 52°17' E 003°46'917.6
2017-Nov-12 20:30N 52°26' E 003°50'816.6
2017-Nov-12 20:00N 52°34' E 003°53'4 8.5
2017-Nov-12 19:30N 52°30' E 003°55'713.5
2017-Nov-12 19:01N 52°24' E 003°53'713.2
2017-Nov-12 18:30N 52°17' E 003°52'713.7
2017-Nov-12 18:00N 52°10' E 003°54'713.1
2017-Nov-12 17:30N 52°04' E 003°52'611.8
2017-Nov-12 17:00N 51°59' E 003°45'2 4.8
2017-Nov-12 16:30N 51°59' E 003°49'3 5.1
2017-Nov-12 16:00N 52°00' E 003°45'4 8.7
2017-Nov-12 15:30N 52°04' E 003°47'4 9.0
2017-Nov-12 15:00N 52°09' E 003°46'4 8.1
2017-Nov-12 14:30N 52°13' E 003°46'4 8.7
2017-Nov-12 14:00N 52°17' E 003°47'5 9.5
2017-Nov-12 13:30N 52°22' E 003°48'3 6.8
2017-Nov-12 13:00N 52°19' E 003°45'2 3.7
2017-Nov-12 12:30N 52°20' E 003°48'611.1
2017-Nov-12 12:00N 52°25' E 003°50'917.9
2017-Nov-12 11:30N 52°34' E 003°53'917.6
2017-Nov-12 11:00N 52°43' E 003°56'2116.1
2017-Nov-12 09:43N 53°02' E 004°10'417.2
2017-Nov-12 09:30N 53°04' E 004°15'917.3
2017-Nov-12 09:00N 53°10' E 004°25'11616.7
2017-Nov-12 02:03N 53°59' E 007°23'115.9
2017-Nov-12 01:58N 53°59' E 007°25'715.8
2017-Nov-12 01:30N 54°00' E 007°37'815.7
2017-Nov-12 01:00N 53°54' E 007°45'510.7
2017-Nov-12 00:30N 53°52' E 007°54'815.2
2017-Nov-12 00:00N 53°50' E 008°06'917.5
2017-Nov-11 23:30N 53°43' E 008°16'918.0
2017-Nov-11 23:01N 53°38' E 008°28'611.0
2017-Nov-11 22:30N 53°33' E 008°33'0 0.7
2017-Nov-11 22:00N 53°33' E 008°34'0 0.2
2017-Nov-11 21:30N 53°34' E 008°34'0 0.7
2017-Nov-11 21:00N 53°34' E 008°34'0 0.0
2017-Nov-11 20:30N 53°34' E 008°34'0 0.0
2017-Nov-11 19:59N 53°34' E 008°34'0 0.0
2017-Nov-11 19:29N 53°34' E 008°34'0 0.0
2017-Nov-11 18:59N 53°34' E 008°34'0 0.0
2017-Nov-11 18:29N 53°34' E 008°34'0 0.0
2017-Nov-11 17:59N 53°34' E 008°34'0 0.0
2017-Nov-11 17:29N 53°34' E 008°34'0 0.0
2017-Nov-11 16:59N 53°34' E 008°34'0 0.0
2017-Nov-11 16:29N 53°34' E 008°34'0 0.0
2017-Nov-11 15:59N 53°34' E 008°34'0 0.0
2017-Nov-11 15:29N 53°34' E 008°34'0 0.0
2017-Nov-11 14:59N 53°34' E 008°34'0 0.0
2017-Nov-11 14:29N 53°34' E 008°34'0 0.0
2017-Nov-11 13:59N 53°34' E 008°34'0 0.0
2017-Nov-11 13:29N 53°34' E 008°34'0 0.0
2017-Nov-11 12:59N 53°34' E 008°34'0 0.0
2017-Nov-11 12:29N 53°34' E 008°34'0 0.0
2017-Nov-11 11:59N 53°34' E 008°34'0 0.0
2017-Nov-11 11:29N 53°34' E 008°34'0 0.0
2017-Nov-11 10:59N 53°34' E 008°34'0 0.0
2017-Nov-11 10:29N 53°34' E 008°34'0 0.0
2017-Nov-11 09:59N 53°34' E 008°34'0 0.0
2017-Nov-11 09:29N 53°34' E 008°34'0 0.0
2017-Nov-11 08:59N 53°34' E 008°34'0 0.5
2017-Nov-11 08:29N 53°34' E 008°33'1 1.7
2017-Nov-11 08:00N 53°34' E 008°33'0 0.4
2017-Nov-11 07:30N 53°34' E 008°33'0 0.7
2017-Nov-11 07:00N 53°34' E 008°32'510.0
2017-Nov-11 06:30N 53°38' E 008°27'816.0
2017-Nov-11 06:00N 53°43' E 008°17'816.1
2017-Nov-11 05:30N 53°49' E 008°07'816.4
2017-Nov-11 05:00N 53°52' E 007°54'713.9
2017-Nov-11 04:30N 53°52' E 007°42'4316.0
2017-Nov-11 01:47N 54°33' E 007°16'619.5
2017-Nov-11 01:28N 54°38' E 007°11'918.9
2017-Nov-11 01:00N 54°47' E 007°09'1019.1
2017-Nov-11 00:30N 54°56' E 007°06'1019.2
2017-Nov-11 00:00N 55°06' E 007°03'6400.5
2017-Nov-11 00:00N 55°00' E 007°00'1531.8 300 / 301003.210.8 10.0 5.713.0
2017-Nov-10 23:30N 55°15' E 007°01'918.5
2017-Nov-10 23:00N 55°25' E 007°02'  

Dump ship's entire track history